Time;durP1;ratioP1;P1;durP2;ratioP2;P2;SDS_P1;SDS_P2;PMS_P1;PMS_P2;Temp;Humidity;BMP_temperature;BMP_pressure;BME280_temperature;BME280_humidity;BME280_pressure;Samples;Min_cycle;Max_cycle;Signal;HPM_P1;HPM_P2
2022/09/07 00:01:25;;;;;;;4.85;3.05;;;;;;;;;;5111053;28;20035;-73
2022/09/07 00:03:58;;;;;;;5.05;2.95;;;;;;;;;;5111333;28;20028;-71
2022/09/07 00:07:08;;;;;;;7.10;3.63;;;;;;;;;;5111433;27;20896;-71
2022/09/07 00:13:39;;;;;;;4.82;3.20;;;;;;;;;;5111940;27;20450;-71
2022/09/07 00:16:07;;;;;;;5.70;3.22;;;;;;;;;;5110999;28;20098;-71
2022/09/07 00:18:33;;;;;;;5.22;3.20;;;;;;;;;;5111637;28;20024;-71
2022/09/07 00:21:01;;;;;;;8.40;3.40;;;;;;;;;;5111292;28;20020;-70
2022/09/07 00:23:55;;;;;;;6.80;3.13;;;;;;;;;;5173598;27;20381;-71
2022/09/07 00:26:23;;;;;;;5.60;3.35;;;;;;;;;;5173378;27;20025;-70
2022/09/07 00:28:49;;;;;;;6.38;3.20;;;;;;;;;;5172911;27;20027;-70
2022/09/07 00:33:57;;;;;;;6.53;3.97;;;;;;;;;;5111738;27;20393;-71
2022/09/07 00:36:23;;;;;;;11.38;4.45;;;;;;;;;;5110935;28;20036;-71
2022/09/07 00:39:24;;;;;;;5.78;3.63;;;;;;;;;;5112244;27;20442;-71
2022/09/07 00:42:31;;;;;;;7.00;4.20;;;;;;;;;;5111688;27;20384;-71
2022/09/07 00:45:39;;;;;;;7.80;4.18;;;;;;;;;;5112259;27;20392;-70
2022/09/07 00:49:49;;;;;;;6.50;3.90;;;;;;;;;;5111265;27;20405;-71
2022/09/07 00:52:16;;;;;;;6.68;4.00;;;;;;;;;;5111339;28;20023;-71
2022/09/07 00:55:34;;;;;;;5.93;3.70;;;;;;;;;;5111898;27;20422;-71
2022/09/07 00:58:00;;;;;;;7.07;4.13;;;;;;;;;;5109718;28;20034;-71
2022/09/07 01:01:02;;;;;;;12.40;4.15;;;;;;;;;;5112144;27;20410;-71
2022/09/07 01:03:30;;;;;;;6.00;3.33;;;;;;;;;;5110948;28;20049;-71
2022/09/07 01:06:04;;;;;;;4.60;2.92;;;;;;;;;;5111402;28;20391;-71
2022/09/07 01:14:44;;;;;;;5.68;3.30;;;;;;;;;;5111618;27;20388;-71
2022/09/07 01:18:57;;;;;;;5.72;3.17;;;;;;;;;;5111362;27;20753;-70
2022/09/07 01:21:46;;;;;;;5.80;3.60;;;;;;;;;;5111344;28;20464;-70
2022/09/07 01:26:34;;;;;;;6.30;3.83;;;;;;;;;;5111132;27;20392;-70
2022/09/07 01:29:46;;;;;;;9.43;3.80;;;;;;;;;;5111720;27;20447;-70
2022/09/07 01:32:17;;;;;;;8.80;3.83;;;;;;;;;;5111105;28;20492;-70
2022/09/07 01:36:19;;;;;;;6.10;3.47;;;;;;;;;;5111546;27;20397;-70
2022/09/07 01:40:38;;;;;;;6.75;3.53;;;;;;;;;;5111016;27;20485;-71
2022/09/07 01:43:26;;;;;;;7.00;3.70;;;;;;;;;;5112129;27;20962;-71
2022/09/07 01:45:53;;;;;;;5.78;3.47;;;;;;;;;;5110987;28;20081;-70
2022/09/07 01:48:20;;;;;;;6.07;3.67;;;;;;;;;;5110065;28;20031;-70
2022/09/07 01:50:49;;;;;;;6.53;4.20;;;;;;;;;;5110044;28;20016;-70
2022/09/07 01:53:18;;;;;;;6.63;3.78;;;;;;;;;;5110833;28;20533;-70
2022/09/07 02:01:40;;;;;;;5.88;3.47;;;;;;;;;;5070544;28;20391;-71
2022/09/07 02:04:12;;;;;;;6.47;4.03;;;;;;;;;;5071143;28;20028;-71
2022/09/07 02:06:48;;;;;;;8.15;3.50;;;;;;;;;;5070380;28;20025;-71
2022/09/07 02:09:20;;;;;;;5.93;3.78;;;;;;;;;;5070636;28;20032;-70
2022/09/07 02:11:49;;;;;;;6.47;4.05;;;;;;;;;;5070841;28;20086;-70
2022/09/07 02:14:22;;;;;;;7.20;4.80;;;;;;;;;;5070199;28;20032;-70
2022/09/07 02:16:53;;;;;;;7.95;4.32;;;;;;;;;;5070561;28;20527;-70
2022/09/07 02:19:20;;;;;;;7.60;4.25;;;;;;;;;;5070730;28;20102;-71
2022/09/07 02:21:49;;;;;;;5.75;3.70;;;;;;;;;;5068859;28;20025;-70
2022/09/07 02:24:18;;;;;;;7.80;3.65;;;;;;;;;;5070468;28;20104;-70
2022/09/07 02:26:47;;;;;;;6.32;4.13;;;;;;;;;;5070347;28;20025;-71
2022/09/07 02:29:13;;;;;;;7.20;4.30;;;;;;;;;;5068593;28;20032;-70
2022/09/07 02:36:44;;;;;;;6.35;3.97;;;;;;;;;;5050440;28;20424;-70
2022/09/07 02:39:10;;;;;;;7.53;4.15;;;;;;;;;;5050939;28;20029;-70
2022/09/07 02:41:42;;;;;;;6.43;4.00;;;;;;;;;;5050985;28;20394;-70
2022/09/07 02:47:11;;;;;;;6.97;4.35;;;;;;;;;;5111969;27;20385;-70
2022/09/07 02:49:52;;;;;;;6.83;4.00;;;;;;;;;;5111159;28;20387;-70
2022/09/07 02:52:18;;;;;;;7.20;4.15;;;;;;;;;;5111292;28;20683;-70
2022/09/07 02:54:53;;;;;;;7.15;4.07;;;;;;;;;;5111269;28;20380;-71
2022/09/07 02:58:50;;;;;;;6.50;3.90;;;;;;;;;;5092123;27;20452;-70
2022/09/07 03:01:34;;;;;;;6.60;4.20;;;;;;;;;;5091004;28;20031;-70
2022/09/07 03:04:03;;;;;;;9.32;4.53;;;;;;;;;;5090708;28;20119;-70
2022/09/07 03:09:19;;;;;;;6.70;3.83;;;;;;;;;;5111474;27;20783;-70
2022/09/07 03:11:45;;;;;;;12.40;4.55;;;;;;;;;;5110941;28;20540;-71
2022/09/07 03:17:23;;;;;;;7.85;4.20;;;;;;;;;;5111461;27;20434;-70
2022/09/07 03:21:22;;;;;;;7.22;4.03;;;;;;;;;;5173516;27;20608;-70
2022/09/07 03:23:48;;;;;;;6.50;3.97;;;;;;;;;;5152594;27;20079;-70
2022/09/07 03:29:47;;;;;;;7.35;4.47;;;;;;;;;;5111715;27;20434;-70
2022/09/07 03:32:13;;;;;;;9.77;4.20;;;;;;;;;;5111128;28;20016;-70
2022/09/07 03:34:49;;;;;;;8.93;4.50;;;;;;;;;;5112079;27;20393;-70
2022/09/07 03:39:53;;;;;;;6.72;4.30;;;;;;;;;;5111245;27;20397;-70
2022/09/07 03:43:16;;;;;;;7.43;4.13;;;;;;;;;;5111505;27;20397;-71
2022/09/07 03:45:42;;;;;;;6.75;4.40;;;;;;;;;;5110986;28;20484;-71
2022/09/07 03:48:08;;;;;;;6.50;4.20;;;;;;;;;;5111455;28;20031;-70
2022/09/07 03:50:34;;;;;;;8.20;4.55;;;;;;;;;;5111451;28;20391;-70
2022/09/07 03:53:00;;;;;;;7.20;4.15;;;;;;;;;;5111039;28;20470;-70
2022/09/07 03:56:05;;;;;;;7.80;4.40;;;;;;;;;;5112098;27;20393;-71
2022/09/07 04:00:00;;;;;;;6.75;3.60;;;;;;;;;;5111237;27;20839;-70
2022/09/07 04:02:26;;;;;;;8.10;4.07;;;;;;;;;;5111672;28;20032;-71
2022/09/07 04:05:03;;;;;;;9.43;5.05;;;;;;;;;;5111891;27;20384;-72
2022/09/07 04:08:24;;;;;;;5.28;3.55;;;;;;;;;;5110937;27;20461;-70
2022/09/07 04:12:53;;;;;;;7.60;4.50;;;;;;;;;;5091758;27;20455;-70
2022/09/07 04:15:52;;;;;;;6.72;3.80;;;;;;;;;;5111443;27;20413;-71
2022/09/07 04:18:18;;;;;;;8.02;4.13;;;;;;;;;;5111384;28;20039;-70
2022/09/07 04:22:28;;;;;;;8.65;4.38;;;;;;;;;;5111478;27;20401;-73
2022/09/07 04:24:54;;;;;;;15.10;5.13;;;;;;;;;;5111353;28;20411;-70
2022/09/07 04:30:13;;;;;;;10.98;4.88;;;;;;;;;;5111667;27;20928;-70
2022/09/07 04:34:52;;;;;;;7.40;4.65;;;;;;;;;;5111537;27;20452;-70
2022/09/07 04:37:18;;;;;;;8.15;4.70;;;;;;;;;;5110199;28;20028;-70
2022/09/07 04:41:17;;;;;;;7.15;3.78;;;;;;;;;;5111706;27;20393;-71
2022/09/07 04:45:05;;;;;;;6.38;4.07;;;;;;;;;;5111671;27;20498;-71
2022/09/07 04:49:17;;;;;;;8.80;4.63;;;;;;;;;;5111217;27;20416;-70
2022/09/07 04:54:29;;;;;;;5.25;3.47;;;;;;;;;;5111409;27;20822;-70
2022/09/07 04:57:44;;;;;;;7.88;4.13;;;;;;;;;;5173012;27;20317;-71
2022/09/07 05:00:10;;;;;;;6.65;4.30;;;;;;;;;;5152522;27;20022;-71
2022/09/07 05:04:37;;;;;;;6.47;4.22;;;;;;;;;;5110922;27;20428;-71
2022/09/07 05:07:03;;;;;;;9.77;6.25;;;;;;;;;;5111331;28;20441;-70
2022/09/07 05:09:30;;;;;;;7.63;4.03;;;;;;;;;;5110988;28;20380;-71
2022/09/07 05:11:56;;;;;;;6.72;3.78;;;;;;;;;;5097382;28;20016;-71
2022/09/07 05:17:07;;;;;;;7.30;4.28;;;;;;;;;;5107753;27;20389;-70
2022/09/07 05:19:33;;;;;;;9.18;5.07;;;;;;;;;;5106386;28;20667;-71
2022/09/07 05:22:00;;;;;;;9.23;5.07;;;;;;;;;;5106118;28;20050;-71
2022/09/07 05:24:26;;;;;;;7.60;5.03;;;;;;;;;;5123159;28;20023;-70
2022/09/07 05:29:04;;;;;;;8.35;5.53;;;;;;;;;;5069789;28;20472;-71
2022/09/07 05:32:36;;;;;;;8.90;5.10;;;;;;;;;;5110739;27;20458;-72
2022/09/07 05:35:03;;;;;;;10.65;4.75;;;;;;;;;;5110615;28;20036;-71
2022/09/07 05:43:14;;;;;;;8.07;4.97;;;;;;;;;;5106059;27;20119;-71
2022/09/07 05:48:29;;;;;;;7.50;4.70;;;;;;;;;;5106094;27;20310;-71
2022/09/07 05:50:55;;;;;;;7.47;4.50;;;;;;;;;;5107711;28;20077;-71
2022/09/07 05:53:21;;;;;;;7.03;4.85;;;;;;;;;;5109985;28;20042;-70
2022/09/07 05:56:08;;;;;;;6.80;4.13;;;;;;;;;;5110433;27;20465;-71
2022/09/07 05:59:56;;;;;;;8.02;4.57;;;;;;;;;;5110899;27;20864;-70
2022/09/07 06:03:52;;;;;;;8.07;5.10;;;;;;;;;;5110662;27;20465;-71
2022/09/07 06:12:11;;;;;;;15.40;5.03;;;;;;;;;;5124757;27;20437;-71
2022/09/07 06:15:33;;;;;;;7.10;4.53;;;;;;;;;;5098553;27;20464;-72
2022/09/07 06:18:57;;;;;;;8.30;4.57;;;;;;;;;;5114138;27;20403;-69
2022/09/07 06:21:27;;;;;;;8.60;4.80;;;;;;;;;;5118774;28;20453;-70
2022/09/07 06:23:54;;;;;;;6.60;4.53;;;;;;;;;;5120991;28;20385;-72
2022/09/07 06:28:41;;;;;;;8.93;5.45;;;;;;;;;;5126597;27;20454;-76
2022/09/07 06:31:08;;;;;;;11.38;5.13;;;;;;;;;;5117001;28;20537;-73
2022/09/07 06:33:35;;;;;;;8.38;5.07;;;;;;;;;;5119964;28;20059;-75
2022/09/07 06:36:36;;;;;;;8.50;4.50;;;;;;;;;;5108175;27;20588;-75
2022/09/07 06:39:59;;;;;;;7.63;4.55;;;;;;;;;;5110399;27;20420;-73
2022/09/07 06:42:26;;;;;;;7.30;4.43;;;;;;;;;;5109117;28;20024;-72
2022/09/07 06:44:52;;;;;;;8.50;4.55;;;;;;;;;;5094424;28;20024;-71
2022/09/07 06:47:18;;;;;;;8.93;4.68;;;;;;;;;;5109375;28;20031;-76
2022/09/07 06:52:15;;;;;;;9.02;5.35;;;;;;;;;;5110900;27;20393;-75
2022/09/07 06:55:59;;;;;;;9.32;4.88;;;;;;;;;;5105139;27;20471;-74
2022/09/07 06:58:26;;;;;;;11.05;5.10;;;;;;;;;;5109895;28;20110;-73
2022/09/07 07:00:53;;;;;;;10.55;5.40;;;;;;;;;;5108706;28;20452;-73
2022/09/07 07:06:44;;;;;;;8.98;5.07;;;;;;;;;;5092754;27;20417;-76
2022/09/07 07:09:52;;;;;;;6.95;4.25;;;;;;;;;;5097870;27;20475;-81
2022/09/07 07:14:59;;;;;;;8.40;4.50;;;;;;;;;;5111001;27;20401;-78
2022/09/07 07:17:26;;;;;;;12.23;4.78;;;;;;;;;;5110460;28;20078;-79
2022/09/07 07:19:52;;;;;;;8.10;4.32;;;;;;;;;;5110991;28;20467;-76
2022/09/07 07:23:04;;;;;;;7.43;3.70;;;;;;;;;;5110514;27;20833;-83
2022/09/07 07:25:30;;;;;;;6.93;3.63;;;;;;;;;;5110819;28;20028;-83
2022/09/07 07:28:12;;;;;;;7.45;3.97;;;;;;;;;;5111322;27;20389;-78
2022/09/07 07:32:30;;;;;;;12.15;4.20;;;;;;;;;;5111120;27;20413;-78
2022/09/07 07:35:25;;;;;;;5.93;3.80;;;;;;;;;;5070772;28;20476;-78
2022/09/07 07:38:21;;;;;;;6.75;3.60;;;;;;;;;;5111163;27;20392;-78
2022/09/07 07:40:53;;;;;;;5.28;3.78;;;;;;;;;;5110976;28;20051;-81
2022/09/07 07:43:19;;;;;;;8.77;4.40;;;;;;;;;;5111263;28;20012;-79
2022/09/07 07:45:45;;;;;;;6.15;3.83;;;;;;;;;;5110522;28;20662;-81
2022/09/07 07:48:12;;;;;;;7.10;4.35;;;;;;;;;;5110864;28;20495;-81
2022/09/07 07:50:38;;;;;;;6.32;3.65;;;;;;;;;;5111058;28;20020;-79
2022/09/07 07:54:03;;;;;;;6.95;3.97;;;;;;;;;;5173295;27;20348;-79
2022/09/07 07:56:29;;;;;;;8.30;4.18;;;;;;;;;;5152399;27;20035;-82
2022/09/07 07:58:55;;;;;;;7.85;5.35;;;;;;;;;;5151116;27;20019;-81
2022/09/07 08:01:22;;;;;;;7.13;4.32;;;;;;;;;;5152090;27;20026;-82
2022/09/07 08:03:48;;;;;;;6.07;3.70;;;;;;;;;;5117896;28;20048;-79
2022/09/07 08:06:16;;;;;;;7.85;3.80;;;;;;;;;;5110280;28;20332;-82
2022/09/07 08:12:17;;;;;;;6.30;4.32;;;;;;;;;;5066197;27;20783;-81
2022/09/07 08:17:48;;;;;;;6.50;4.38;;;;;;;;;;5115030;27;20728;-78
2022/09/07 08:20:16;;;;;;;6.03;4.22;;;;;;;;;;5109577;28;20111;-82
2022/09/07 08:24:15;;;;;;;7.45;4.03;;;;;;;;;;5109572;27;20320;-80
2022/09/07 08:26:42;;;;;;;5.65;4.10;;;;;;;;;;5108231;28;20085;-79
2022/09/07 08:29:08;;;;;;;6.75;4.25;;;;;;;;;;5091201;28;20476;-78
2022/09/07 08:33:47;;;;;;;5.95;3.53;;;;;;;;;;5129587;27;20128;-82
2022/09/07 08:37:11;;;;;;;7.53;4.85;;;;;;;;;;5107210;27;20673;-83
2022/09/07 08:39:39;;;;;;;7.68;3.78;;;;;;;;;;5106955;28;20051;-80
2022/09/07 08:42:12;;;;;;;5.35;3.65;;;;;;;;;;5108785;28;20535;-77
2022/09/07 08:44:44;;;;;;;5.95;4.13;;;;;;;;;;5109488;28;20107;-82
2022/09/07 08:47:17;;;;;;;6.45;4.03;;;;;;;;;;5109821;28;20074;-78
2022/09/07 08:49:54;;;;;;;7.05;4.07;;;;;;;;;;5108763;28;20439;-79
2022/09/07 08:52:23;;;;;;;5.07;3.28;;;;;;;;;;5099602;28;20078;-80
2022/09/07 08:55:52;;;;;;;9.43;3.88;;;;;;;;;;5110854;27;20400;-80
2022/09/07 08:58:30;;;;;;;5.57;3.58;;;;;;;;;;5099889;28;20484;-80
2022/09/07 09:00:57;;;;;;;7.72;4.07;;;;;;;;;;5110655;28;20031;-79
2022/09/07 09:03:28;;;;;;;6.60;3.70;;;;;;;;;;5107557;28;20051;-77
2022/09/07 09:06:19;;;;;;;6.68;3.90;;;;;;;;;;5109485;28;20016;-74
2022/09/07 09:10:36;;;;;;;6.80;3.70;;;;;;;;;;5068877;28;20403;-78
2022/09/07 09:13:02;;;;;;;5.35;3.58;;;;;;;;;;5068172;28;20033;-80
2022/09/07 09:15:31;;;;;;;7.15;3.97;;;;;;;;;;5069396;28;20021;-74
2022/09/07 09:18:16;;;;;;;7.00;4.07;;;;;;;;;;5069727;28;20017;-75
2022/09/07 09:20:53;;;;;;;6.10;4.18;;;;;;;;;;5070162;28;20028;-76
2022/09/07 09:23:21;;;;;;;5.25;3.30;;;;;;;;;;5069924;28;20056;-75
2022/09/07 09:25:52;;;;;;;7.85;4.38;;;;;;;;;;5070023;28;20074;-74
2022/09/07 09:28:18;;;;;;;7.43;3.75;;;;;;;;;;5069909;28;20373;-77
2022/09/07 09:30:46;;;;;;;6.10;3.83;;;;;;;;;;5069410;28;20420;-76
2022/09/07 09:33:42;;;;;;;6.70;3.88;;;;;;;;;;5110829;27;20414;-74
2022/09/07 09:36:22;;;;;;;8.60;6.32;;;;;;;;;;5110767;28;20028;-74
2022/09/07 09:38:49;;;;;;;8.80;4.55;;;;;;;;;;5110550;28;20024;-74
2022/09/07 09:41:15;;;;;;;6.20;3.90;;;;;;;;;;5110967;28;20024;-74
2022/09/07 09:43:50;;;;;;;6.00;3.83;;;;;;;;;;5110640;28;20016;-74
2022/09/07 09:47:58;;;;;;;5.80;3.60;;;;;;;;;;5111356;27;20400;-73
2022/09/07 09:50:28;;;;;;;4.75;2.90;;;;;;;;;;5110866;28;20110;-74
2022/09/07 09:52:55;;;;;;;5.72;3.38;;;;;;;;;;5111038;28;20055;-73
2022/09/07 09:55:22;;;;;;;5.95;3.13;;;;;;;;;;5111092;28;20020;-73
2022/09/07 09:57:52;;;;;;;5.90;3.53;;;;;;;;;;5110346;28;20024;-74
2022/09/07 10:00:20;;;;;;;6.45;4.13;;;;;;;;;;5108044;28;20073;-73
2022/09/07 10:02:59;;;;;;;7.55;3.50;;;;;;;;;;5108524;27;20393;-72
2022/09/07 10:05:27;;;;;;;6.13;3.33;;;;;;;;;;5106856;28;20024;-73
2022/09/07 10:07:53;;;;;;;7.25;3.58;;;;;;;;;;5108943;28;20046;-74
2022/09/07 10:10:20;;;;;;;5.43;3.20;;;;;;;;;;5108816;28;20048;-72
2022/09/07 10:12:46;;;;;;;5.32;3.13;;;;;;;;;;5108971;28;20035;-74
2022/09/07 10:15:24;;;;;;;5.85;3.60;;;;;;;;;;5107519;28;20440;-72
2022/09/07 10:17:50;;;;;;;7.28;3.53;;;;;;;;;;5108685;28;20030;-75
2022/09/07 10:20:19;;;;;;;5.20;3.13;;;;;;;;;;5106529;28;20460;-75
2022/09/07 10:22:51;;;;;;;5.38;3.55;;;;;;;;;;5105203;28;20036;-73
2022/09/07 10:25:31;;;;;;;6.95;3.33;;;;;;;;;;5106044;28;20042;-72
2022/09/07 10:28:21;;;;;;;6.03;2.75;;;;;;;;;;5107433;28;20123;-76
2022/09/07 10:31:21;;;;;;;6.00;2.95;;;;;;;;;;5066448;28;20943;-75
2022/09/07 10:34:05;;;;;;;6.25;3.08;;;;;;;;;;5066862;28;20511;-74
2022/09/07 10:36:36;;;;;;;5.13;3.00;;;;;;;;;;5067214;28;20047;-75
2022/09/07 10:39:06;;;;;;;6.22;3.03;;;;;;;;;;5068389;28;20104;-78
2022/09/07 10:41:44;;;;;;;5.47;3.28;;;;;;;;;;5065550;28;20119;-75
2022/09/07 10:44:34;;;;;;;4.35;2.97;;;;;;;;;;5065856;28;20021;-75
2022/09/07 10:47:03;;;;;;;5.90;3.55;;;;;;;;;;5055385;28;20029;-74
2022/09/07 10:49:41;;;;;;;5.97;3.05;;;;;;;;;;5065626;28;20564;-74
2022/09/07 10:52:13;;;;;;;4.55;2.70;;;;;;;;;;5065489;28;20150;-74
2022/09/07 10:54:58;;;;;;;4.15;2.90;;;;;;;;;;5066178;28;20025;-72
2022/09/07 10:57:27;;;;;;;5.22;3.20;;;;;;;;;;5068581;28;20021;-75
2022/09/07 11:00:10;;;;;;;5.13;3.20;;;;;;;;;;5069903;28;20020;-76
2022/09/07 11:02:42;;;;;;;6.25;3.10;;;;;;;;;;5068452;28;20021;-75
2022/09/07 11:05:27;;;;;;;5.40;3.00;;;;;;;;;;5066390;28;20033;-76
2022/09/07 11:07:59;;;;;;;4.95;2.58;;;;;;;;;;5067706;28;20090;-77
2022/09/07 11:10:28;;;;;;;5.10;2.42;;;;;;;;;;5067075;28;20033;-76
2022/09/07 11:12:57;;;;;;;4.63;2.78;;;;;;;;;;5067060;28;20071;-76
2022/09/07 11:15:35;;;;;;;4.20;2.30;;;;;;;;;;5068205;28;20039;-76
2022/09/07 11:18:06;;;;;;;4.47;2.50;;;;;;;;;;5068671;28;20033;-76
2022/09/07 11:20:37;;;;;;;3.87;2.60;;;;;;;;;;5069667;28;20060;-76
2022/09/07 11:23:09;;;;;;;3.60;2.38;;;;;;;;;;5069084;28;20583;-76
2022/09/07 11:25:35;;;;;;;5.30;2.80;;;;;;;;;;5069367;28;20063;-76
2022/09/07 11:28:04;;;;;;;4.00;2.40;;;;;;;;;;5069434;28;20480;-75
2022/09/07 11:30:33;;;;;;;4.53;2.67;;;;;;;;;;5068969;28;20057;-76
2022/09/07 11:33:15;;;;;;;4.93;2.80;;;;;;;;;;5069281;28;20480;-75
2022/09/07 11:35:44;;;;;;;6.90;3.28;;;;;;;;;;5069303;28;20029;-78
2022/09/07 11:38:13;;;;;;;5.63;2.70;;;;;;;;;;5068819;28;20432;-76
2022/09/07 11:40:42;;;;;;;4.85;2.75;;;;;;;;;;5066508;28;20028;-73
2022/09/07 11:43:17;;;;;;;3.78;2.45;;;;;;;;;;5055896;28;20028;-73
2022/09/07 11:45:43;;;;;;;5.60;2.70;;;;;;;;;;5055661;28;20025;-74
2022/09/07 11:48:19;;;;;;;4.22;2.60;;;;;;;;;;5055905;28;20135;-74
2022/09/07 11:50:48;;;;;;;5.15;3.30;;;;;;;;;;5055711;28;20542;-74
2022/09/07 11:53:19;;;;;;;4.65;3.10;;;;;;;;;;5054429;28;20025;-74
2022/09/07 11:55:48;;;;;;;5.70;2.85;;;;;;;;;;5055836;28;20025;-74
2022/09/07 11:58:32;;;;;;;5.32;3.13;;;;;;;;;;5055307;28;20096;-74
2022/09/07 12:01:17;;;;;;;4.47;2.88;;;;;;;;;;5055548;28;20025;-72
2022/09/07 12:03:49;;;;;;;4.68;2.65;;;;;;;;;;5055258;28;20025;-71
2022/09/07 12:06:15;;;;;;;;;;;;;;;;;;5055485;28;20556;-76
2022/09/07 12:08:47;;;;;;;4.03;2.30;;;;;;;;;;5054139;28;19960;-73
2022/09/07 12:11:26;;;;;;;5.32;3.03;;;;;;;;;;5053803;28;20040;-74
2022/09/07 12:13:58;;;;;;;5.07;2.90;;;;;;;;;;5055337;28;20025;-73
2022/09/07 12:16:24;;;;;;;;;;;;;;;;;;5055760;28;20104;-76
2022/09/07 12:19:08;;;;;;;4.90;2.90;;;;;;;;;;5054752;28;19943;-76
2022/09/07 12:21:41;;;;;;;4.07;2.63;;;;;;;;;;5055532;28;20025;-76
2022/09/07 12:24:26;;;;;;;4.32;2.47;;;;;;;;;;5054843;28;20013;-73
2022/09/07 12:26:58;;;;;;;6.40;3.08;;;;;;;;;;5054709;28;20029;-73
2022/09/07 12:29:25;;;;;;;3.95;2.42;;;;;;;;;;5054556;28;20084;-76
2022/09/07 12:31:56;;;;;;;4.20;2.58;;;;;;;;;;5055186;28;20399;-75
2022/09/07 12:34:31;;;;;;;8.85;2.50;;;;;;;;;;5054649;28;20025;-75
2022/09/07 12:37:23;;;;;;;3.67;2.60;;;;;;;;;;5054966;28;20029;-75
2022/09/07 12:39:49;;;;;;;;;;;;;;;;;;5054646;28;20500;-74
2022/09/07 12:42:21;;;;;;;4.05;2.33;;;;;;;;;;5054140;28;19948;-75
2022/09/07 12:44:48;;;;;;;4.32;2.45;;;;;;;;;;5054680;28;20021;-75
2022/09/07 12:47:14;;;;;;;3.92;2.58;;;;;;;;;;5054193;28;20547;-73
2022/09/07 12:49:58;;;;;;;3.38;2.33;;;;;;;;;;5054750;28;20040;-73
2022/09/07 12:52:33;;;;;;;4.05;2.38;;;;;;;;;;5054080;28;20025;-74
2022/09/07 12:55:18;;;;;;;3.17;1.92;;;;;;;;;;5054262;28;20060;-74
2022/09/07 12:57:47;;;;;;;4.05;2.40;;;;;;;;;;5054788;28;20029;-74
2022/09/07 13:00:16;;;;;;;3.25;2.33;;;;;;;;;;5054570;28;20060;-74
2022/09/07 13:02:49;;;;;;;3.15;2.25;;;;;;;;;;5054062;28;20100;-75
2022/09/07 13:05:18;;;;;;;3.58;2.38;;;;;;;;;;5053476;28;20473;-74
2022/09/07 13:07:59;;;;;;;3.30;2.13;;;;;;;;;;5053983;28;20065;-75
2022/09/07 13:10:29;;;;;;;4.35;2.70;;;;;;;;;;5054406;28;20037;-75
2022/09/07 13:13:00;;;;;;;4.40;2.40;;;;;;;;;;5053102;28;20034;-76
2022/09/07 13:15:33;;;;;;;3.03;2.25;;;;;;;;;;5053973;28;20389;-75
2022/09/07 13:18:02;;;;;;;3.72;2.38;;;;;;;;;;5054472;28;20025;-74
2022/09/07 13:20:30;;;;;;;4.25;2.40;;;;;;;;;;5054220;28;20108;-74
2022/09/07 13:23:16;;;;;;;4.68;2.40;;;;;;;;;;5053963;28;20100;-73
2022/09/07 13:25:47;;;;;;;3.67;2.53;;;;;;;;;;5050255;28;20135;-72
2022/09/07 13:28:31;;;;;;;3.45;2.42;;;;;;;;;;5054312;28;20481;-73
2022/09/07 13:31:16;;;;;;;3.25;2.38;;;;;;;;;;5053519;28;20053;-71
2022/09/07 13:33:52;;;;;;;4.30;2.40;;;;;;;;;;5053961;28;20056;-70
2022/09/07 13:36:20;;;;;;;3.65;2.25;;;;;;;;;;5053833;28;20021;-71
2022/09/07 13:38:47;;;;;;;4.00;2.40;;;;;;;;;;5052753;28;20107;-71
2022/09/07 13:41:15;;;;;;;3.28;1.95;;;;;;;;;;5053893;28;20036;-73
2022/09/07 13:43:46;;;;;;;3.75;2.45;;;;;;;;;;5053460;28;20052;-70
2022/09/07 13:46:34;;;;;;;3.72;2.20;;;;;;;;;;5053931;28;20056;-72
2022/09/07 13:49:06;;;;;;;2.80;2.33;;;;;;;;;;5053721;28;20025;-71
2022/09/07 13:51:32;;;;;;;;;;;;;;;;;;5053953;28;20068;-72
2022/09/07 13:54:05;;;;;;;3.85;2.50;;;;;;;;;;5054304;28;19932;-72
2022/09/07 13:56:41;;;;;;;3.85;2.60;;;;;;;;;;5053751;28;20103;-71
2022/09/07 13:59:22;;;;;;;3.55;2.25;;;;;;;;;;5053292;28;20473;-71
2022/09/07 14:01:48;;;;;;;5.20;2.22;;;;;;;;;;5053723;28;20424;-71
2022/09/07 14:04:20;;;;;;;3.83;2.03;;;;;;;;;;5053069;28;20021;-71
2022/09/07 14:06:46;;;;;;;4.00;2.20;;;;;;;;;;5053794;28;20036;-71
2022/09/07 14:09:17;;;;;;;6.28;2.30;;;;;;;;;;5053427;28;20021;-71
2022/09/07 14:11:47;;;;;;;5.07;2.88;;;;;;;;;;5053387;28;20071;-71
2022/09/07 14:14:19;;;;;;;3.33;2.27;;;;;;;;;;5053460;28;20057;-72
2022/09/07 14:16:49;;;;;;;3.65;2.25;;;;;;;;;;5053485;28;20385;-71
2022/09/07 14:19:20;;;;;;;2.55;2.00;;;;;;;;;;5053021;28;20025;-71
2022/09/07 14:21:53;;;;;;;4.18;2.28;;;;;;;;;;5053932;28;20021;-71
2022/09/07 14:24:21;;;;;;;2.92;2.10;;;;;;;;;;5053371;28;20484;-71
2022/09/07 14:26:47;;;;;;;4.20;2.20;;;;;;;;;;5052765;28;20021;-70
2022/09/07 14:29:24;;;;;;;3.47;2.35;;;;;;;;;;5052993;28;20065;-70
2022/09/07 14:31:50;;;;;;;3.30;2.03;;;;;;;;;;5053190;28;20474;-71
2022/09/07 14:34:18;;;;;;;3.63;2.55;;;;;;;;;;5052864;28;20048;-71
2022/09/07 14:36:46;;;;;;;3.90;2.28;;;;;;;;;;5053142;28;20021;-71
2022/09/07 14:39:16;;;;;;;3.50;2.35;;;;;;;;;;5052794;28;20035;-73
2022/09/07 14:41:42;;;;;;;3.22;2.22;;;;;;;;;;5053248;28;20017;-72
2022/09/07 14:44:26;;;;;;;4.47;2.20;;;;;;;;;;5053153;28;20071;-70
2022/09/07 14:46:52;;;;;;;3.00;1.95;;;;;;;;;;5052924;28;20027;-72
2022/09/07 14:49:19;;;;;;;2.40;1.70;;;;;;;;;;5053131;28;20136;-72
2022/09/07 14:51:45;;;;;;;4.28;2.20;;;;;;;;;;5053165;28;20028;-72
2022/09/07 14:54:19;;;;;;;5.18;2.30;;;;;;;;;;5052826;28;20027;-70
2022/09/07 14:57:00;;;;;;;3.00;2.03;;;;;;;;;;5053029;28;20523;-70
2022/09/07 14:59:35;;;;;;;2.67;1.92;;;;;;;;;;5052929;28;20025;-73
2022/09/07 15:02:21;;;;;;;2.63;1.90;;;;;;;;;;5052384;28;20017;-70
2022/09/07 15:04:48;;;;;;;3.03;2.05;;;;;;;;;;5053082;28;20045;-72
2022/09/07 15:07:37;;;;;;;3.17;1.90;;;;;;;;;;5052745;28;20064;-72
2022/09/07 15:10:21;;;;;;;2.90;1.90;;;;;;;;;;5052741;28;20114;-71
2022/09/07 15:12:48;;;;;;;3.33;2.40;;;;;;;;;;5052747;28;20021;-72
2022/09/07 15:15:25;;;;;;;2.65;1.90;;;;;;;;;;5052603;28;20465;-71
2022/09/07 15:17:52;;;;;;;3.03;2.10;;;;;;;;;;5056299;28;20021;-71
2022/09/07 15:20:37;;;;;;;3.33;1.95;;;;;;;;;;5056592;28;20028;-73
2022/09/07 15:23:05;;;;;;;3.15;2.10;;;;;;;;;;5054830;28;20029;-70
2022/09/07 15:25:31;;;;;;;2.15;1.65;;;;;;;;;;5055263;28;20032;-72
2022/09/07 15:27:58;;;;;;;4.68;2.05;;;;;;;;;;5056602;28;20040;-72
2022/09/07 15:30:24;;;;;;;7.03;2.03;;;;;;;;;;5055721;28;20390;-72
2022/09/07 15:32:51;;;;;;;3.88;2.40;;;;;;;;;;5056407;28;20017;-72
2022/09/07 15:35:17;;;;;;;2.85;2.25;;;;;;;;;;5055920;28;20029;-72
2022/09/07 15:37:43;;;;;;;3.47;2.08;;;;;;;;;;5056420;28;20082;-72
2022/09/07 15:40:14;;;;;;;3.53;2.35;;;;;;;;;;5056529;28;20537;-72
2022/09/07 15:42:40;;;;;;;3.72;2.17;;;;;;;;;;5056143;28;20064;-72
2022/09/07 15:45:06;;;;;;;3.25;2.17;;;;;;;;;;5056266;28;20021;-72
2022/09/07 15:47:32;;;;;;;3.60;2.42;;;;;;;;;;5056195;28;20029;-72
2022/09/07 15:49:58;;;;;;;2.90;2.22;;;;;;;;;;5055602;28;20481;-72
2022/09/07 15:52:25;;;;;;;4.13;2.35;;;;;;;;;;5055993;28;20079;-72
2022/09/07 15:54:51;;;;;;;4.25;2.33;;;;;;;;;;5055963;28;20107;-72
2022/09/07 15:57:17;;;;;;;4.10;2.50;;;;;;;;;;5055536;28;20092;-72
2022/09/07 15:59:43;;;;;;;4.18;2.38;;;;;;;;;;5055864;28;20028;-72
2022/09/07 16:02:09;;;;;;;4.50;2.40;;;;;;;;;;5055810;28;20051;-72
2022/09/07 16:04:35;;;;;;;2.58;2.00;;;;;;;;;;5054127;28;20036;-72
2022/09/07 16:07:01;;;;;;;4.75;2.13;;;;;;;;;;5055691;28;20028;-72
2022/09/07 16:09:27;;;;;;;2.80;2.17;;;;;;;;;;5054392;28;20025;-72
2022/09/07 16:11:53;;;;;;;3.30;1.90;;;;;;;;;;5055267;28;20037;-72
2022/09/07 16:14:20;;;;;;;2.95;2.00;;;;;;;;;;5055747;28;20078;-73
2022/09/07 16:16:46;;;;;;;2.42;1.58;;;;;;;;;;5055621;28;20029;-71
2022/09/07 16:19:13;;;;;;;2.85;1.80;;;;;;;;;;5055268;28;20055;-74
2022/09/07 16:21:39;;;;;;;3.47;2.00;;;;;;;;;;5056192;28;20432;-72
2022/09/07 16:24:07;;;;;;;2.40;1.60;;;;;;;;;;5055529;28;20017;-71
2022/09/07 16:26:34;;;;;;;3.58;2.38;;;;;;;;;;5055136;28;20033;-72
2022/09/07 16:29:00;;;;;;;3.53;2.20;;;;;;;;;;5053591;28;20434;-72
2022/09/07 16:31:29;;;;;;;4.28;2.63;;;;;;;;;;5055594;28;20083;-73
2022/09/07 16:33:55;;;;;;;6.05;3.00;;;;;;;;;;5054853;28;20020;-72
2022/09/07 16:36:22;;;;;;;6.50;3.20;;;;;;;;;;5055450;28;20032;-72
2022/09/07 16:38:48;;;;;;;6.72;3.22;;;;;;;;;;5054781;28;20033;-72
2022/09/07 16:41:16;;;;;;;5.88;2.97;;;;;;;;;;5055048;28;20032;-72
2022/09/07 16:43:42;;;;;;;7.45;3.90;;;;;;;;;;5055425;28;20028;-72
2022/09/07 16:46:11;;;;;;;6.03;3.25;;;;;;;;;;5053460;28;20430;-72
2022/09/07 16:48:37;;;;;;;7.55;4.07;;;;;;;;;;5055038;28;20021;-72
2022/09/07 16:51:04;;;;;;;6.60;4.20;;;;;;;;;;5054895;28;20111;-71
2022/09/07 16:53:31;;;;;;;11.85;7.95;;;;;;;;;;5054497;28;20479;-72
2022/09/07 16:56:16;;;;;;;27.80;19.20;;;;;;;;;;5054810;28;20033;-71
2022/09/07 16:58:43;;;;;;;17.90;10.82;;;;;;;;;;5054984;28;20021;-72
2022/09/07 17:01:11;;;;;;;12.15;8.68;;;;;;;;;;5054501;28;20442;-72
2022/09/07 17:03:37;;;;;;;9.38;6.43;;;;;;;;;;5054994;28;20056;-72
2022/09/07 17:06:04;;;;;;;9.90;6.75;;;;;;;;;;5054678;28;20086;-71
2022/09/07 17:08:31;;;;;;;9.50;5.10;;;;;;;;;;5054139;28;20028;-71
2022/09/07 17:11:02;;;;;;;8.93;5.25;;;;;;;;;;5054481;28;20394;-71
2022/09/07 17:13:30;;;;;;;10.88;6.68;;;;;;;;;;5054718;28;20052;-71
2022/09/07 17:16:03;;;;;;;12.30;8.80;;;;;;;;;;5054081;28;20025;-71
2022/09/07 17:18:29;;;;;;;17.35;9.77;;;;;;;;;;5054451;28;20025;-71
2022/09/07 17:20:56;;;;;;;9.70;6.47;;;;;;;;;;5054333;28;20469;-71